createdAt,value
2018-07-31T00:00:52.334Z,21
2018-07-31T00:01:52.598Z,21.06
2018-07-31T00:02:52.328Z,21.03
2018-07-31T00:03:52.335Z,21.01
2018-07-31T00:04:52.591Z,21.09
2018-07-31T00:05:52.590Z,21.09
2018-07-31T00:06:52.330Z,21.11
2018-07-31T00:07:52.589Z,21.15
2018-07-31T00:08:52.583Z,21.18
2018-07-31T00:09:52.590Z,21.13
2018-07-31T00:10:52.619Z,21.21
2018-07-31T00:11:52.330Z,21.18
2018-07-31T00:12:52.330Z,21.13
2018-07-31T00:13:52.596Z,21.23
2018-07-31T00:14:52.586Z,21.19
2018-07-31T00:15:52.583Z,21.16
2018-07-31T00:16:52.588Z,21.23
2018-07-31T00:17:52.589Z,21.25
2018-07-31T00:18:52.580Z,21.27
2018-07-31T00:19:52.580Z,21.28
2018-07-31T00:20:52.577Z,21.25
2018-07-31T00:21:52.325Z,21.27
2018-07-31T00:22:52.575Z,21.27
2018-07-31T00:23:52.324Z,21.25
2018-07-31T00:24:52.319Z,21.23
2018-07-31T00:25:52.318Z,21.3
2018-07-31T00:26:52.575Z,21.31
2018-07-31T00:27:52.325Z,21.28
2018-07-31T00:28:52.582Z,21.28
2018-07-31T00:29:52.317Z,21.25
2018-07-31T00:30:52.575Z,21.25
2018-07-31T00:31:52.573Z,21.22
2018-07-31T00:32:52.326Z,21.3
2018-07-31T00:33:52.573Z,21.22
2018-07-31T00:34:52.315Z,21.22
2018-07-31T00:35:52.570Z,21.21
2018-07-31T00:36:52.571Z,21.3
2018-07-31T00:37:52.572Z,21.23
2018-07-31T00:38:52.322Z,21.27
2018-07-31T00:39:52.056Z,21.28
2018-07-31T00:40:52.567Z,21.23
2018-07-31T00:41:52.565Z,21.21
2018-07-31T00:42:52.308Z,21.3
2018-07-31T00:43:52.582Z,21.15
2018-07-31T00:44:52.560Z,21.15
2018-07-31T00:45:52.571Z,21.27
2018-07-31T00:46:52.567Z,21.3
2018-07-31T00:47:52.571Z,21.25
2018-07-31T00:48:52.568Z,21.23
2018-07-31T00:49:52.563Z,21.21
2018-07-31T00:50:52.562Z,21.27
2018-07-31T00:51:52.564Z,21.18
2018-07-31T00:52:52.567Z,21.25
2018-07-31T00:53:52.571Z,21.31
2018-07-31T00:54:52.560Z,21.27
2018-07-31T00:55:52.305Z,21.25
2018-07-31T00:56:52.564Z,21.16
2018-07-31T00:57:52.566Z,21.16
2018-07-31T00:58:52.306Z,21.27
2018-07-31T00:59:52.312Z,21.19
2018-07-31T01:00:52.048Z,21.15
2018-07-31T01:01:52.305Z,21.21
2018-07-31T01:02:52.565Z,21.18
2018-07-31T01:03:52.559Z,21.19
2018-07-31T01:04:52.305Z,21.21
2018-07-31T01:05:52.303Z,21.21
2018-07-31T01:06:52.564Z,21.18
2018-07-31T01:07:52.556Z,21.16
2018-07-31T01:08:52.572Z,21.23
2018-07-31T01:09:52.315Z,21.21
2018-07-31T01:10:52.639Z,21.25
2018-07-31T01:11:52.555Z,21.21
2018-07-31T01:12:52.560Z,21.19
2018-07-31T01:13:52.302Z,21.3
2018-07-31T01:14:52.559Z,21.23
2018-07-31T01:15:52.553Z,21.19
2018-07-31T01:16:52.557Z,21.25
2018-07-31T01:17:52.300Z,21.23
2018-07-31T01:18:52.549Z,21.25
2018-07-31T01:19:52.568Z,21.3
2018-07-31T01:20:52.551Z,21.28
2018-07-31T01:21:52.554Z,21.25
2018-07-31T01:22:52.558Z,21.33
2018-07-31T01:23:52.556Z,21.27
2018-07-31T01:24:52.301Z,21.21
2018-07-31T01:25:52.553Z,21.27
2018-07-31T01:26:52.293Z,21.28
2018-07-31T01:27:52.552Z,21.22
2018-07-31T01:28:52.547Z,21.25
2018-07-31T01:29:52.555Z,21.19
2018-07-31T01:30:52.290Z,21.33
2018-07-31T01:31:52.549Z,21.21
2018-07-31T01:32:52.292Z,21.22
2018-07-31T01:33:52.545Z,21.25
2018-07-31T01:34:52.288Z,21.28
2018-07-31T01:35:52.555Z,21.25
2018-07-31T01:36:52.547Z,21.28
2018-07-31T01:37:52.546Z,21.28
2018-07-31T01:38:52.550Z,21.25
2018-07-31T01:39:52.287Z,21.28
2018-07-31T01:40:52.548Z,21.21
2018-07-31T01:41:52.292Z,21.23
2018-07-31T01:42:52.548Z,21.27
2018-07-31T01:43:52.547Z,21.28
2018-07-31T01:44:52.549Z,21.27
2018-07-31T01:45:52.410Z,21.27
2018-07-31T01:46:52.544Z,21.27
2018-07-31T01:47:52.548Z,21.13
2018-07-31T01:48:52.289Z,21.19
2018-07-31T01:49:52.290Z,21.23
2018-07-31T01:50:52.289Z,21.23
2018-07-31T01:51:52.545Z,21.25
2018-07-31T01:52:52.543Z,21.28
2018-07-31T01:53:52.549Z,21.28
2018-07-31T01:54:52.287Z,21.25
2018-07-31T01:55:52.545Z,21.27
2018-07-31T01:56:52.548Z,21.31
2018-07-31T01:57:52.539Z,21.28
2018-07-31T01:58:52.284Z,21.21
2018-07-31T01:59:52.538Z,21.19
2018-07-31T02:00:52.538Z,21.27
2018-07-31T02:01:52.532Z,21.28
2018-07-31T02:02:52.279Z,21.22
2018-07-31T02:03:52.540Z,21.16
2018-07-31T02:04:52.539Z,21.3
2018-07-31T02:05:52.280Z,21.19
2018-07-31T02:06:52.534Z,21.21
2018-07-31T02:07:52.277Z,21.31
2018-07-31T02:08:52.287Z,21.25
2018-07-31T02:09:52.535Z,21.21
2018-07-31T02:10:52.283Z,21.13
2018-07-31T02:11:52.567Z,21.12
2018-07-31T02:12:52.533Z,21.08
2018-07-31T02:13:52.534Z,21.09
2018-07-31T02:14:52.536Z,21.11
2018-07-31T02:15:52.021Z,21.03
2018-07-31T02:16:52.537Z,21.12
2018-07-31T02:17:52.583Z,21.12
2018-07-31T02:18:52.526Z,21.16
2018-07-31T02:19:52.530Z,21.19
2018-07-31T02:20:52.534Z,21.19
2018-07-31T02:21:52.526Z,21.21
2018-07-31T02:22:52.015Z,21.18
2018-07-31T02:23:52.619Z,21.16
2018-07-31T02:24:52.531Z,21.18
2018-07-31T02:25:52.528Z,21.21
2018-07-31T02:26:52.528Z,21.18
2018-07-31T02:27:52.610Z,21.23
2018-07-31T02:28:52.536Z,21.25
2018-07-31T02:29:52.274Z,21.23
2018-07-31T02:30:52.542Z,21.25
2018-07-31T02:31:52.270Z,21.25
2018-07-31T02:32:52.527Z,21.27
2018-07-31T02:33:52.522Z,21.15
2018-07-31T02:34:52.520Z,21.13
2018-07-31T02:35:52.523Z,21.18
2018-07-31T02:36:52.525Z,21.16
2018-07-31T02:37:52.267Z,21.19
2018-07-31T02:38:52.263Z,21.25
2018-07-31T02:39:52.534Z,21.22
2018-07-31T02:40:52.520Z,21.16
2018-07-31T02:41:52.520Z,21.15
2018-07-31T02:42:52.268Z,21.22
2018-07-31T02:43:52.259Z,21.18
2018-07-31T02:44:52.532Z,21.18
2018-07-31T02:45:52.515Z,21.15
2018-07-31T02:46:52.706Z,21.12
2018-07-31T02:47:52.268Z,21.08
2018-07-31T02:48:52.520Z,20.98
2018-07-31T02:49:52.264Z,20.97
2018-07-31T02:50:52.523Z,21.01
2018-07-31T02:51:52.524Z,21.04
2018-07-31T02:52:52.535Z,21.06
2018-07-31T02:53:52.514Z,21.11
2018-07-31T02:54:52.256Z,21.08
2018-07-31T02:55:52.519Z,21.08
2018-07-31T02:56:52.525Z,21.11
2018-07-31T02:57:52.522Z,21.09
2018-07-31T02:58:51.997Z,21.11
2018-07-31T02:59:52.523Z,21.19
2018-07-31T03:00:52.532Z,21.12
2018-07-31T03:01:52.259Z,21.15
2018-07-31T03:02:52.529Z,21.04
2018-07-31T03:03:52.005Z,21.06
2018-07-31T03:04:52.510Z,21.09
2018-07-31T03:05:52.511Z,21.11
2018-07-31T03:06:52.510Z,21.06
2018-07-31T03:07:52.513Z,21.08
2018-07-31T03:08:52.514Z,21.08
2018-07-31T03:09:52.513Z,21.06
2018-07-31T03:10:51.991Z,21.12
2018-07-31T03:11:52.511Z,21.09
2018-07-31T03:12:52.509Z,21.11
2018-07-31T03:13:52.505Z,21.13
2018-07-31T03:14:52.505Z,21.06
2018-07-31T03:15:52.507Z,21.08
2018-07-31T03:16:52.255Z,21.12
2018-07-31T03:17:52.502Z,21.09
2018-07-31T03:18:52.501Z,21.15
2018-07-31T03:19:52.248Z,21.15
2018-07-31T03:20:52.249Z,21.13
2018-07-31T03:21:52.506Z,21.15
2018-07-31T03:22:52.246Z,21.19
2018-07-31T03:23:52.504Z,21.21
2018-07-31T03:24:52.243Z,21.18
2018-07-31T03:25:52.246Z,21.16
2018-07-31T03:26:52.497Z,21.13
2018-07-31T03:27:52.523Z,21.23
2018-07-31T03:28:52.501Z,21.22
2018-07-31T03:29:52.495Z,21.22
2018-07-31T03:30:52.499Z,21.28
2018-07-31T03:31:52.506Z,21.23
2018-07-31T03:32:52.493Z,21.25
2018-07-31T03:33:52.489Z,21.23
2018-07-31T03:34:52.239Z,21.3
2018-07-31T03:35:52.234Z,21.21
2018-07-31T03:36:51.982Z,21.3
2018-07-31T03:37:52.238Z,21.21
2018-07-31T03:38:52.485Z,21.27
2018-07-31T03:39:52.498Z,21.25
2018-07-31T03:40:52.488Z,21.25
2018-07-31T03:41:51.978Z,21.25
2018-07-31T03:42:52.491Z,21.28
2018-07-31T03:43:52.490Z,21.3
2018-07-31T03:44:52.494Z,21.28
2018-07-31T03:45:52.491Z,21.28
2018-07-31T03:46:52.489Z,21.45
2018-07-31T03:47:52.235Z,21.4
2018-07-31T03:48:52.486Z,21.38
2018-07-31T03:49:52.521Z,21.43
2018-07-31T03:50:52.488Z,21.45
2018-07-31T03:51:52.229Z,21.46
2018-07-31T03:52:52.484Z,21.49
2018-07-31T03:53:52.482Z,21.41
2018-07-31T03:54:52.480Z,21.43
2018-07-31T03:55:52.483Z,21.43
2018-07-31T03:56:52.487Z,21.51
2018-07-31T03:57:52.231Z,21.51
2018-07-31T03:58:52.485Z,21.48
2018-07-31T03:59:52.481Z,21.51
2018-07-31T04:00:52.481Z,21.51
2018-07-31T04:01:52.474Z,21.61
2018-07-31T04:02:52.477Z,21.64
2018-07-31T04:03:52.223Z,21.56
2018-07-31T04:04:52.475Z,21.64
2018-07-31T04:05:52.480Z,21.64
2018-07-31T04:06:52.224Z,21.67
2018-07-31T04:07:52.224Z,21.7
2018-07-31T04:08:52.221Z,21.68
2018-07-31T04:09:52.479Z,21.7
2018-07-31T04:10:52.222Z,21.73
2018-07-31T04:11:52.226Z,21.77
2018-07-31T04:12:52.219Z,21.78
2018-07-31T04:13:52.222Z,21.83
2018-07-31T04:14:52.478Z,21.82
2018-07-31T04:15:52.225Z,21.83
2018-07-31T04:16:52.580Z,21.74
2018-07-31T04:17:52.476Z,21.77
2018-07-31T04:18:52.480Z,21.8
2018-07-31T04:19:52.472Z,21.94
2018-07-31T04:20:52.477Z,21.93
2018-07-31T04:21:52.475Z,21.89
2018-07-31T04:22:52.481Z,21.89
2018-07-31T04:23:52.477Z,22.05
2018-07-31T04:24:52.481Z,22.02
2018-07-31T04:25:52.223Z,21.93
2018-07-31T04:26:52.481Z,21.94
2018-07-31T04:27:52.479Z,21.94
2018-07-31T04:28:52.475Z,22.09
2018-07-31T04:29:52.217Z,22.09
2018-07-31T04:30:52.475Z,22.14
2018-07-31T04:31:52.223Z,22.2
2018-07-31T04:32:52.220Z,22.23
2018-07-31T04:33:52.216Z,22.18
2018-07-31T04:34:52.211Z,22.12
2018-07-31T04:35:52.741Z,22.18
2018-07-31T04:36:52.224Z,22.18
2018-07-31T04:37:52.478Z,22.23
2018-07-31T04:38:52.476Z,22.23
2018-07-31T04:39:52.476Z,22.29
2018-07-31T04:40:52.469Z,22.31
2018-07-31T04:41:52.477Z,22.38
2018-07-31T04:42:52.218Z,22.31
2018-07-31T04:43:52.482Z,22.46
2018-07-31T04:44:52.483Z,22.38
2018-07-31T04:45:52.470Z,22.57
2018-07-31T04:46:52.474Z,22.49
2018-07-31T04:47:52.478Z,22.51
2018-07-31T04:48:52.478Z,22.57
2018-07-31T04:49:51.962Z,22.59
2018-07-31T04:50:52.483Z,22.6
2018-07-31T04:51:52.475Z,22.6
2018-07-31T04:52:52.483Z,22.69
2018-07-31T04:53:52.478Z,22.66
2018-07-31T04:54:52.220Z,22.59
2018-07-31T04:55:52.473Z,22.63
2018-07-31T04:56:52.334Z,22.75
2018-07-31T04:57:52.221Z,22.71
2018-07-31T04:58:52.224Z,22.82
2018-07-31T04:59:52.224Z,22.86
2018-07-31T05:00:52.481Z,22.88
2018-07-31T05:01:52.230Z,22.96
2018-07-31T05:02:52.482Z,23.07
2018-07-31T05:03:52.226Z,23.04
2018-07-31T05:04:52.228Z,23.15
2018-07-31T05:05:52.257Z,23.15
2018-07-31T05:06:52.486Z,23.22
2018-07-31T05:07:52.233Z,23.26
2018-07-31T05:08:52.485Z,23.26
2018-07-31T05:09:52.232Z,23.22
2018-07-31T05:10:52.229Z,23.24
2018-07-31T05:11:52.489Z,23.38
2018-07-31T05:12:52.486Z,23.37
2018-07-31T05:13:52.241Z,23.35
2018-07-31T05:14:52.240Z,23.45
2018-07-31T05:15:52.490Z,23.5
2018-07-31T05:16:52.488Z,23.45
2018-07-31T05:17:52.492Z,23.47
2018-07-31T05:18:52.498Z,23.56
2018-07-31T05:19:52.490Z,23.6
2018-07-31T05:20:52.239Z,23.62
2018-07-31T05:21:52.499Z,23.67
2018-07-31T05:22:52.244Z,23.62
2018-07-31T05:23:52.500Z,23.67
2018-07-31T05:24:52.240Z,23.67
2018-07-31T05:25:52.242Z,23.72
2018-07-31T05:26:52.501Z,23.81
2018-07-31T05:27:52.238Z,23.81
2018-07-31T05:28:52.252Z,23.85
2018-07-31T05:29:52.498Z,23.96
2018-07-31T05:30:52.503Z,23.96
2018-07-31T05:31:52.506Z,24.04
2018-07-31T05:32:53.009Z,24.11
2018-07-31T05:33:52.510Z,24.19
2018-07-31T05:34:52.247Z,24.24
2018-07-31T05:35:52.249Z,24.29
2018-07-31T05:36:52.510Z,24.34
2018-07-31T05:37:52.511Z,24.33
2018-07-31T05:38:52.513Z,24.34
2018-07-31T05:39:52.513Z,24.32
2018-07-31T05:40:52.513Z,24.33
2018-07-31T05:41:52.259Z,24.36
2018-07-31T05:42:52.518Z,24.42
2018-07-31T05:43:52.261Z,24.42
2018-07-31T05:44:52.524Z,24.44
2018-07-31T05:45:52.517Z,24.52
2018-07-31T05:46:52.521Z,24.54
2018-07-31T05:47:52.524Z,24.55
2018-07-31T05:48:52.268Z,24.56
2018-07-31T05:49:52.536Z,24.56
2018-07-31T05:50:52.538Z,24.64
2018-07-31T05:51:52.726Z,24.67
2018-07-31T05:52:52.529Z,24.7
2018-07-31T05:53:52.535Z,24.69
2018-07-31T05:54:52.535Z,24.83
2018-07-31T05:55:52.534Z,24.83
2018-07-31T05:56:52.533Z,24.86
2018-07-31T05:57:52.542Z,24.86
2018-07-31T05:58:52.286Z,24.92
2018-07-31T05:59:52.544Z,24.97
2018-07-31T06:00:52.289Z,24.96
2018-07-31T06:01:52.558Z,24.94
2018-07-31T06:02:52.547Z,25.02
2018-07-31T06:03:52.036Z,25.11
2018-07-31T06:04:52.556Z,25.11
2018-07-31T06:05:52.554Z,25.08
2018-07-31T06:06:52.558Z,25.04
2018-07-31T06:07:52.303Z,25.05
2018-07-31T06:08:52.556Z,25.12
2018-07-31T06:09:52.305Z,25.15
2018-07-31T06:10:52.561Z,25.17
2018-07-31T06:11:52.570Z,25.07
2018-07-31T06:12:52.312Z,25.19
2018-07-31T06:13:52.570Z,25.27
2018-07-31T06:14:52.574Z,25.19
2018-07-31T06:15:52.618Z,25.22
2018-07-31T06:16:52.580Z,25.23
2018-07-31T06:17:52.583Z,25.24
2018-07-31T06:18:52.327Z,25.38
2018-07-31T06:19:52.590Z,25.38
2018-07-31T06:20:52.584Z,25.33
2018-07-31T06:21:52.338Z,25.38
2018-07-31T06:22:52.585Z,25.52
2018-07-31T06:23:52.600Z,25.52
2018-07-31T06:24:52.609Z,25.47
2018-07-31T06:25:52.596Z,25.59
2018-07-31T06:26:52.608Z,25.6
2018-07-31T06:27:52.090Z,25.62
2018-07-31T06:28:52.605Z,25.64
2018-07-31T06:29:52.093Z,25.66
2018-07-31T06:30:52.355Z,25.69
2018-07-31T06:31:52.354Z,25.74
2018-07-31T06:32:52.797Z,25.82
2018-07-31T06:33:52.619Z,25.86
2018-07-31T06:34:52.626Z,25.93
2018-07-31T06:35:52.359Z,25.91
2018-07-31T06:36:52.624Z,25.93
2018-07-31T06:37:52.372Z,25.97
2018-07-31T06:38:52.627Z,26.04
2018-07-31T06:39:52.633Z,26.06
2018-07-31T06:40:52.640Z,26.23
2018-07-31T06:41:52.643Z,26.22
2018-07-31T06:42:52.641Z,26.24
2018-07-31T06:43:52.641Z,26.27
2018-07-31T06:44:52.643Z,26.35
2018-07-31T06:45:52.646Z,26.42
2018-07-31T06:46:52.648Z,26.59
2018-07-31T06:47:52.728Z,26.61
2018-07-31T06:48:52.688Z,26.67
2018-07-31T06:49:52.657Z,26.87
2018-07-31T06:50:52.677Z,26.9
2018-07-31T06:51:52.659Z,27.19
2018-07-31T06:52:52.666Z,27.43
2018-07-31T06:53:52.419Z,27.8
2018-07-31T06:54:52.676Z,28.26
2018-07-31T06:55:52.679Z,28.86
2018-07-31T06:56:52.562Z,29.63
2018-07-31T06:57:52.686Z,30.24
2018-07-31T06:58:52.432Z,30.97
2018-07-31T06:59:52.693Z,31.63
2018-07-31T07:00:52.698Z,32.15
2018-07-31T07:01:52.701Z,32.68
2018-07-31T07:02:52.707Z,33.08
2018-07-31T07:03:52.462Z,33.56
2018-07-31T07:04:52.727Z,33.81
2018-07-31T07:05:52.479Z,34.08
2018-07-31T07:06:52.738Z,34.4
2018-07-31T07:07:52.739Z,34.69
2018-07-31T07:08:52.746Z,34.94
2018-07-31T07:09:52.762Z,35.28
2018-07-31T07:10:52.758Z,35.46
2018-07-31T07:11:52.504Z,35.72
2018-07-31T07:12:52.775Z,35.83
2018-07-31T07:13:52.784Z,36.02
2018-07-31T07:14:52.527Z,36.22
2018-07-31T07:15:52.791Z,36.25
2018-07-31T07:16:52.546Z,36.36
2018-07-31T07:17:52.559Z,36.58
2018-07-31T07:18:52.566Z,36.75
2018-07-31T07:19:52.824Z,36.9
2018-07-31T07:20:52.575Z,36.89
2018-07-31T07:21:52.847Z,37.09
2018-07-31T07:22:52.860Z,37.14
2018-07-31T07:23:52.615Z,37.17
2018-07-31T07:24:52.619Z,37.26
2018-07-31T07:25:52.630Z,37.54
2018-07-31T07:26:52.908Z,37.75
2018-07-31T07:27:53.019Z,38.05
2018-07-31T07:28:52.654Z,38.28
2018-07-31T07:29:52.669Z,38.43
2018-07-31T07:30:52.933Z,38.59
2018-07-31T07:31:52.686Z,38.71
2018-07-31T07:32:52.696Z,38.96
2018-07-31T07:33:53.264Z,39.11
2018-07-31T07:34:52.718Z,39.04
2018-07-31T07:35:52.733Z,39.23
2018-07-31T07:36:53.004Z,39.19
2018-07-31T07:37:52.751Z,39.27
2018-07-31T07:38:52.763Z,39.38
2018-07-31T07:39:52.771Z,39.37
2018-07-31T07:40:53.039Z,39.34
2018-07-31T07:41:53.051Z,39.34
2018-07-31T07:42:53.059Z,39.4
2018-07-31T07:43:53.076Z,39.18
2018-07-31T07:44:53.089Z,38.92
2018-07-31T07:45:53.102Z,38.9
2018-07-31T07:46:53.112Z,38.89
2018-07-31T07:47:53.124Z,39.08
2018-07-31T07:48:53.132Z,39.22
2018-07-31T07:49:52.890Z,39.35
2018-07-31T07:50:53.201Z,39.34
2018-07-31T07:51:53.175Z,39.27
2018-07-31T07:52:53.181Z,39.34
2018-07-31T07:53:53.330Z,39.52
2018-07-31T07:54:53.216Z,39.47
2018-07-31T07:55:53.218Z,39.52
2018-07-31T07:56:52.970Z,39.53
2018-07-31T07:57:52.987Z,39.65
2018-07-31T07:58:53.250Z,39.76
2018-07-31T07:59:52.747Z,39.83
2018-07-31T08:00:53.276Z,40.01
2018-07-31T08:01:53.289Z,40.1
2018-07-31T08:02:52.785Z,39.93
2018-07-31T08:03:53.242Z,39.67
2018-07-31T08:04:53.322Z,39.46
2018-07-31T08:05:53.329Z,39.2
2018-07-31T08:06:53.095Z,38.93
2018-07-31T08:07:53.104Z,38.64
2018-07-31T08:08:53.377Z,38.43
2018-07-31T08:09:53.215Z,37.88
2018-07-31T08:10:53.128Z,37.44
2018-07-31T08:11:53.137Z,36.92
2018-07-31T08:12:52.892Z,36.52
2018-07-31T08:13:53.446Z,36.14
2018-07-31T08:14:53.453Z,35.86
2018-07-31T08:15:53.445Z,35.46
2018-07-31T08:16:52.932Z,35.31
2018-07-31T08:17:53.459Z,34.9
2018-07-31T08:18:53.209Z,34.56
2018-07-31T08:19:53.476Z,34.15
2018-07-31T08:20:53.490Z,33.99
2018-07-31T08:21:53.498Z,33.68
2018-07-31T08:22:53.513Z,33.5
2018-07-31T08:23:53.509Z,33.29
2018-07-31T08:24:53.272Z,33.09
2018-07-31T08:25:53.540Z,32.87
2018-07-31T08:26:53.542Z,32.76
2018-07-31T08:27:53.857Z,32.8
2018-07-31T08:28:53.317Z,32.76
2018-07-31T08:29:53.570Z,32.91
2018-07-31T08:30:53.585Z,32.94
2018-07-31T08:31:53.334Z,32.76
2018-07-31T08:32:53.599Z,32.8
2018-07-31T08:33:53.607Z,32.9
2018-07-31T08:34:53.619Z,32.83
2018-07-31T08:35:53.628Z,32.84
2018-07-31T08:36:53.637Z,32.96
2018-07-31T08:37:53.639Z,32.89
2018-07-31T08:38:53.655Z,32.89
2018-07-31T08:39:53.659Z,32.98
2018-07-31T08:40:53.662Z,32.96
2018-07-31T08:41:53.417Z,33.02
2018-07-31T08:42:53.686Z,33.06
2018-07-31T08:43:53.433Z,33.05
2018-07-31T08:44:53.188Z,33.08
2018-07-31T08:45:53.713Z,33.08
2018-07-31T08:46:53.723Z,33.13
2018-07-31T08:47:53.469Z,33.21
2018-07-31T08:48:53.480Z,33.18
2018-07-31T08:49:53.746Z,33.17
2018-07-31T08:50:53.759Z,33.08
2018-07-31T08:51:53.513Z,33.13
2018-07-31T08:52:53.514Z,33.16
2018-07-31T08:53:53.779Z,33.18
2018-07-31T08:54:53.530Z,33.18
2018-07-31T08:55:53.977Z,33.13
2018-07-31T08:56:53.861Z,33.16
2018-07-31T08:57:53.809Z,33.02
2018-07-31T08:58:53.817Z,33.08
2018-07-31T08:59:53.827Z,33.03
2018-07-31T09:00:53.581Z,33.09
2018-07-31T09:01:53.847Z,33.12
2018-07-31T09:02:54.174Z,33.03
2018-07-31T09:03:53.606Z,33.2
2018-07-31T09:04:53.872Z,33.2
2018-07-31T09:05:53.627Z,33.26
2018-07-31T09:06:53.893Z,33.31
2018-07-31T09:07:53.640Z,33.29
2018-07-31T09:08:54.091Z,33.26
2018-07-31T09:09:53.924Z,33.31
2018-07-31T09:10:53.940Z,33.28
2018-07-31T09:11:53.924Z,33.4
2018-07-31T09:12:53.673Z,33.36
2018-07-31T09:13:53.428Z,33.31
2018-07-31T09:14:53.947Z,33.31
2018-07-31T09:15:53.957Z,33.31
2018-07-31T09:16:53.711Z,33.32
2018-07-31T09:17:53.973Z,33.28
2018-07-31T09:18:53.724Z,33.34
2018-07-31T09:19:53.985Z,33.26
2018-07-31T09:20:54.077Z,33.31
2018-07-31T09:21:54.003Z,33.29
2018-07-31T09:22:53.760Z,33.28
2018-07-31T09:23:54.025Z,33.31
2018-07-31T09:24:54.321Z,33.37
2018-07-31T09:25:54.040Z,33.39
2018-07-31T09:26:53.792Z,33.39
2018-07-31T09:27:54.063Z,33.39
2018-07-31T09:28:54.062Z,33.37
2018-07-31T09:29:54.076Z,33.36
2018-07-31T09:30:54.110Z,33.39
2018-07-31T09:31:53.829Z,33.43
2018-07-31T09:32:53.843Z,33.36
2018-07-31T09:33:54.104Z,33.37
2018-07-31T09:34:54.115Z,33.37
2018-07-31T09:35:53.863Z,33.4
2018-07-31T09:36:54.128Z,33.36
2018-07-31T09:37:54.135Z,33.26
2018-07-31T09:38:54.144Z,33.37
2018-07-31T09:39:54.160Z,33.4
2018-07-31T09:40:54.159Z,33.47
2018-07-31T09:41:54.167Z,33.5
2018-07-31T09:42:53.919Z,33.46
2018-07-31T09:43:54.193Z,33.53
2018-07-31T09:44:54.193Z,33.74
2018-07-31T09:45:54.197Z,33.74
2018-07-31T09:46:53.958Z,33.77
2018-07-31T09:47:54.221Z,33.81
2018-07-31T09:48:53.713Z,33.9
2018-07-31T09:49:54.248Z,34.06
2018-07-31T09:50:54.245Z,34.1
2018-07-31T09:51:54.249Z,34.08
2018-07-31T09:52:54.256Z,34.1
2018-07-31T09:53:54.015Z,34.05
2018-07-31T09:54:54.276Z,34.1
2018-07-31T09:55:54.027Z,34.03
2018-07-31T09:56:54.036Z,33.96
2018-07-31T09:57:54.302Z,33.95
2018-07-31T09:58:53.796Z,34.03
2018-07-31T09:59:54.318Z,33.99
2018-07-31T10:00:54.331Z,33.97
2018-07-31T10:01:54.331Z,34.03
2018-07-31T10:02:54.084Z,34.08
2018-07-31T10:03:54.356Z,34.11
2018-07-31T10:04:54.394Z,34.05
2018-07-31T10:05:54.367Z,34.05
2018-07-31T10:06:54.386Z,34.15
2018-07-31T10:07:54.380Z,34.21
2018-07-31T10:08:54.394Z,34.34
2018-07-31T10:09:54.398Z,34.46
2018-07-31T10:10:54.410Z,34.48
2018-07-31T10:11:54.682Z,34.4
2018-07-31T10:12:54.173Z,34.34
2018-07-31T10:13:54.185Z,34.22
2018-07-31T10:14:54.449Z,34.34
2018-07-31T10:15:54.195Z,34.34
2018-07-31T10:16:54.207Z,34.33
2018-07-31T10:17:54.730Z,34.37
2018-07-31T10:18:54.221Z,34.52
2018-07-31T10:19:54.230Z,34.74
2018-07-31T10:20:54.239Z,34.74
2018-07-31T10:21:53.996Z,34.78
2018-07-31T10:22:54.515Z,34.69
2018-07-31T10:23:54.523Z,34.71
2018-07-31T10:24:54.276Z,34.69
2018-07-31T10:25:54.544Z,34.84
2018-07-31T10:26:54.289Z,34.86
2018-07-31T10:27:54.567Z,34.84
2018-07-31T10:28:54.573Z,34.83
2018-07-31T10:29:54.577Z,34.74
2018-07-31T10:30:54.965Z,34.67
2018-07-31T10:31:54.337Z,34.72
2018-07-31T10:32:54.348Z,34.72
2018-07-31T10:33:54.614Z,34.74
2018-07-31T10:34:54.361Z,34.74
2018-07-31T10:35:54.634Z,34.69
2018-07-31T10:36:54.386Z,34.72
2018-07-31T10:37:54.918Z,34.78
2018-07-31T10:38:54.403Z,34.84
2018-07-31T10:39:54.409Z,34.94
2018-07-31T10:40:54.419Z,34.91
2018-07-31T10:41:54.435Z,34.9
2018-07-31T10:42:54.433Z,34.93
2018-07-31T10:43:54.846Z,34.9
2018-07-31T10:44:54.455Z,34.94
2018-07-31T10:45:54.721Z,34.87
2018-07-31T10:46:54.220Z,34.93
2018-07-31T10:47:54.769Z,34.9
2018-07-31T10:48:54.574Z,34.86
2018-07-31T10:49:54.543Z,34.79
2018-07-31T10:50:54.766Z,34.71
2018-07-31T10:51:54.776Z,34.81
2018-07-31T10:52:54.575Z,34.71
2018-07-31T10:53:54.793Z,34.81
2018-07-31T10:54:54.838Z,34.91
2018-07-31T10:55:54.809Z,34.94
2018-07-31T10:56:54.566Z,35.06
2018-07-31T10:57:54.894Z,35.06
2018-07-31T10:58:54.591Z,35.04
2018-07-31T10:59:54.817Z,35.01
2018-07-31T11:00:54.862Z,34.97
2018-07-31T11:01:54.607Z,35.06
2018-07-31T11:02:55.358Z,35.09
2018-07-31T11:03:54.766Z,35.11
2018-07-31T11:04:54.896Z,35.2
2018-07-31T11:05:54.643Z,35.18
2018-07-31T11:06:54.909Z,35.13
2018-07-31T11:07:54.406Z,35.11
2018-07-31T11:08:54.940Z,35.09
2018-07-31T11:09:54.943Z,35.21
2018-07-31T11:10:54.697Z,35.23
2018-07-31T11:11:54.972Z,35.24
2018-07-31T11:12:54.716Z,35.23
2018-07-31T11:13:54.985Z,35.16
2018-07-31T11:14:54.752Z,35.31
2018-07-31T11:15:55.001Z,35.26
2018-07-31T11:16:55.004Z,35.3
2018-07-31T11:17:55.014Z,35.2
2018-07-31T11:18:55.024Z,35.18
2018-07-31T11:19:55.049Z,35.08
2018-07-31T11:20:54.545Z,34.99
2018-07-31T11:21:55.054Z,34.87
2018-07-31T11:22:55.070Z,34.9
2018-07-31T11:23:54.814Z,35.08
2018-07-31T11:24:55.098Z,35.08
2018-07-31T11:25:54.838Z,35.11
2018-07-31T11:26:54.583Z,34.99
2018-07-31T11:27:54.845Z,34.74
2018-07-31T11:28:55.119Z,34.59
2018-07-31T11:29:55.123Z,34.36
2018-07-31T11:30:54.878Z,34.33
2018-07-31T11:31:55.144Z,34.24
2018-07-31T11:32:55.159Z,34.4
2018-07-31T11:33:54.657Z,34.54
2018-07-31T11:34:55.171Z,34.59
2018-07-31T11:35:55.180Z,34.61
2018-07-31T11:36:55.192Z,34.48
2018-07-31T11:37:54.941Z,34.33
2018-07-31T11:38:55.215Z,34.22
2018-07-31T11:39:55.211Z,34.18
2018-07-31T11:40:55.220Z,34.14
2018-07-31T11:41:55.241Z,33.85
2018-07-31T11:42:55.008Z,33.73
2018-07-31T11:43:54.786Z,33.55
2018-07-31T11:44:55.259Z,33.55
2018-07-31T11:45:55.271Z,33.41
2018-07-31T11:46:55.281Z,33.36
2018-07-31T11:47:55.029Z,33.23
2018-07-31T11:48:55.304Z,33.08
2018-07-31T11:49:55.292Z,33.03
2018-07-31T11:50:55.309Z,32.96
2018-07-31T11:51:55.324Z,32.9
2018-07-31T11:52:55.336Z,32.76
2018-07-31T11:53:55.341Z,32.76
2018-07-31T11:54:55.093Z,32.68
2018-07-31T11:55:55.487Z,32.67
2018-07-31T11:56:54.857Z,32.65
2018-07-31T11:57:55.120Z,32.61
2018-07-31T11:58:55.383Z,32.61
2018-07-31T11:59:55.395Z,32.56
2018-07-31T12:00:55.409Z,32.53
2018-07-31T12:01:55.492Z,32.53
2018-07-31T12:02:55.184Z,32.42
2018-07-31T12:03:55.172Z,32.54
2018-07-31T12:04:55.438Z,32.42
2018-07-31T12:05:55.446Z,32.49
2018-07-31T12:06:55.197Z,32.52
2018-07-31T12:07:55.463Z,32.49
2018-07-31T12:08:55.482Z,32.57
2018-07-31T12:09:55.609Z,32.67
2018-07-31T12:10:55.489Z,32.76
2018-07-31T12:11:55.241Z,32.71
2018-07-31T12:12:55.506Z,32.61
2018-07-31T12:13:55.362Z,32.74
2018-07-31T12:14:55.274Z,32.71
2018-07-31T12:15:55.548Z,32.75
2018-07-31T12:16:55.280Z,32.68
2018-07-31T12:17:55.543Z,32.76
2018-07-31T12:18:55.296Z,32.72
2018-07-31T12:19:55.568Z,32.64
2018-07-31T12:20:55.808Z,32.62
2018-07-31T12:21:55.577Z,32.52
2018-07-31T12:22:55.604Z,32.45
2018-07-31T12:23:55.593Z,32.38
2018-07-31T12:24:55.602Z,32.35
2018-07-31T12:25:55.609Z,32.39
2018-07-31T12:26:55.500Z,32.35
2018-07-31T12:27:55.368Z,32.27
2018-07-31T12:28:55.637Z,32.27
2018-07-31T12:29:55.647Z,32.25
2018-07-31T12:30:55.398Z,32.2
2018-07-31T12:31:55.662Z,32.12
2018-07-31T12:32:55.873Z,32.16
2018-07-31T12:33:55.422Z,31.98
2018-07-31T12:34:55.685Z,31.98
2018-07-31T12:35:55.689Z,31.98
2018-07-31T12:36:55.701Z,31.9
2018-07-31T12:37:56.007Z,31.95
2018-07-31T12:38:55.465Z,31.75
2018-07-31T12:39:55.729Z,31.67
2018-07-31T12:40:55.726Z,31.74
2018-07-31T12:41:55.735Z,31.65
2018-07-31T12:42:55.752Z,31.62
2018-07-31T12:43:55.795Z,31.55
2018-07-31T12:44:55.763Z,31.56
2018-07-31T12:45:55.772Z,31.55
2018-07-31T12:46:55.830Z,31.49
2018-07-31T12:47:55.782Z,31.4
2018-07-31T12:48:55.801Z,31.47
2018-07-31T12:49:55.800Z,31.33
2018-07-31T12:50:55.603Z,31.37
2018-07-31T12:51:55.559Z,31.3
2018-07-31T12:52:55.823Z,31.25
2018-07-31T12:53:55.318Z,31.34
2018-07-31T12:54:55.579Z,31.26